createdAt,value
2022-11-27T00:01:37.472Z,5.17
2022-11-27T00:04:05.009Z,4.50
2022-11-27T00:06:32.896Z,4.50
2022-11-27T00:09:00.731Z,4.70
2022-11-27T00:11:28.612Z,5.50
2022-11-27T00:13:55.732Z,5.47
2022-11-27T00:16:23.731Z,6.10
2022-11-27T00:18:52.549Z,4.27
2022-11-27T00:21:21.218Z,3.83
2022-11-27T00:23:48.300Z,4.10
2022-11-27T00:26:15.672Z,4.07
2022-11-27T00:28:43.150Z,4.80
2022-11-27T00:31:13.544Z,3.73
2022-11-27T00:33:40.751Z,4.57
2022-11-27T00:36:10.138Z,3.93
2022-11-27T00:38:39.021Z,4.90
2022-11-27T00:41:06.863Z,3.60
2022-11-27T00:43:43.235Z,4.30
2022-11-27T00:46:11.500Z,4.03
2022-11-27T00:48:38.843Z,4.07
2022-11-27T00:51:06.704Z,3.53
2022-11-27T00:53:35.149Z,3.73
2022-11-27T00:56:02.796Z,5.10
2022-11-27T00:58:29.899Z,3.77
2022-11-27T01:00:57.387Z,3.60
2022-11-27T01:03:24.687Z,4.30
2022-11-27T01:05:51.863Z,3.40
2022-11-27T01:08:19.328Z,3.33
2022-11-27T01:10:54.739Z,3.20
2022-11-27T01:13:23.564Z,3.90
2022-11-27T01:15:59.987Z,3.33
2022-11-27T01:18:27.226Z,2.73
2022-11-27T01:20:54.367Z,3.60
2022-11-27T01:23:21.460Z,4.07
2022-11-27T01:25:48.591Z,3.90
2022-11-27T01:28:17.131Z,2.60
2022-11-27T01:30:44.334Z,4.10
2022-11-27T01:33:11.474Z,2.93
2022-11-27T01:35:38.549Z,2.83
2022-11-27T01:38:05.656Z,3.20
2022-11-27T01:40:32.874Z,3.90
2022-11-27T01:43:00.032Z,4.17
2022-11-27T01:45:28.633Z,3.27
2022-11-27T01:47:56.834Z,3.40
2022-11-27T01:50:25.472Z,3.60
2022-11-27T01:52:53.440Z,3.30
2022-11-27T01:55:26.135Z,3.00
2022-11-27T01:57:55.022Z,3.23
2022-11-27T02:00:22.355Z,3.13
2022-11-27T02:02:50.855Z,4.40
2022-11-27T02:05:19.439Z,3.50
2022-11-27T02:07:47.192Z,3.47
2022-11-27T02:10:14.677Z,3.30
2022-11-27T02:12:44.516Z,2.43
2022-11-27T02:15:14.992Z,3.40
2022-11-27T02:17:52.384Z,3.50
2022-11-27T02:20:28.483Z,4.63
2022-11-27T02:23:06.528Z,4.17
2022-11-27T02:25:39.551Z,3.87
2022-11-27T02:28:15.888Z,3.43
2022-11-27T02:30:47.028Z,4.03
2022-11-27T02:33:16.979Z,3.80
2022-11-27T02:35:48.673Z,4.00
2022-11-27T02:38:17.762Z,4.17
2022-11-27T02:40:49.596Z,4.53
2022-11-27T02:43:18.786Z,4.83
2022-11-27T02:45:48.911Z,5.23
2022-11-27T02:48:17.252Z,4.37
2022-11-27T02:50:45.129Z,5.23
2022-11-27T02:53:13.986Z,7.03
2022-11-27T02:55:41.866Z,3.83
2022-11-27T02:58:10.633Z,5.53
2022-11-27T03:00:38.718Z,5.27
2022-11-27T03:03:08.963Z,5.60
2022-11-27T03:05:39.665Z,5.40
2022-11-27T03:08:08.414Z,6.30
2022-11-27T03:10:40.128Z,5.47
2022-11-27T03:13:07.204Z,6.77
2022-11-27T03:15:40.317Z,6.90
2022-11-27T03:18:12.455Z,6.23
2022-11-27T03:20:41.688Z,6.93
2022-11-27T03:23:08.796Z,7.57
2022-11-27T03:25:35.906Z,6.83
2022-11-27T03:28:04.270Z,5.70
2022-11-27T03:30:31.401Z,7.10
2022-11-27T03:32:58.655Z,6.70
2022-11-27T03:35:27.647Z,7.50
2022-11-27T03:37:55.256Z,7.50
2022-11-27T03:40:23.982Z,9.17
2022-11-27T03:42:59.046Z,8.33
2022-11-27T03:45:30.666Z,8.00
2022-11-27T03:48:02.349Z,8.13
2022-11-27T03:50:34.008Z,6.37
2022-11-27T03:53:04.074Z,6.27
2022-11-27T03:55:37.682Z,8.00
2022-11-27T03:58:06.813Z,7.53
2022-11-27T04:00:38.895Z,8.93
2022-11-27T04:03:09.157Z,9.43
2022-11-27T04:05:37.781Z,8.53
2022-11-27T04:08:05.273Z,10.00
2022-11-27T04:10:32.328Z,11.03
2022-11-27T04:12:59.467Z,10.60
2022-11-27T04:15:26.558Z,8.50
2022-11-27T04:17:53.636Z,7.50
2022-11-27T04:20:20.721Z,8.00
2022-11-27T04:22:49.147Z,7.37
2022-11-27T04:25:16.227Z,8.03
2022-11-27T04:27:43.323Z,6.70
2022-11-27T04:30:10.855Z,9.50
2022-11-27T04:32:37.977Z,6.83
2022-11-27T04:35:05.334Z,8.27
2022-11-27T04:37:32.412Z,7.53
2022-11-27T04:40:00.836Z,9.30
2022-11-27T04:42:28.110Z,9.67
2022-11-27T04:44:55.224Z,5.87
2022-11-27T04:47:22.297Z,7.27
2022-11-27T04:49:49.397Z,8.50
2022-11-27T04:52:16.512Z,5.90
2022-11-27T04:54:43.768Z,6.47
2022-11-27T04:57:12.234Z,7.03
2022-11-27T04:59:39.353Z,10.23
2022-11-27T05:02:06.443Z,9.50
2022-11-27T05:04:33.663Z,8.37
2022-11-27T05:07:00.785Z,8.93
2022-11-27T05:09:27.853Z,8.40
2022-11-27T05:11:54.951Z,9.30
2022-11-27T05:14:23.505Z,8.93
2022-11-27T05:16:51.654Z,5.60
2022-11-27T05:19:19.587Z,7.50
2022-11-27T05:21:47.148Z,7.20
2022-11-27T05:24:14.589Z,7.20
2022-11-27T05:26:41.769Z,10.63
2022-11-27T05:29:09.674Z,5.83
2022-11-27T05:31:38.454Z,5.87
2022-11-27T05:34:06.049Z,6.63
2022-11-27T05:36:33.758Z,6.20
2022-11-27T05:39:01.271Z,8.60
2022-11-27T05:41:28.390Z,6.60
2022-11-27T05:43:55.486Z,7.87
2022-11-27T05:46:23.298Z,7.33
2022-11-27T05:48:51.798Z,7.50
2022-11-27T05:51:19.315Z,5.80
2022-11-27T05:53:46.396Z,7.73
2022-11-27T05:56:14.564Z,7.10
2022-11-27T05:58:42.297Z,7.30
2022-11-27T06:01:09.946Z,7.43
2022-11-27T06:03:37.320Z,5.93
2022-11-27T06:06:07.579Z,6.70
2022-11-27T06:08:34.665Z,6.63
2022-11-27T06:11:06.195Z,5.60
2022-11-27T06:13:33.264Z,6.30
2022-11-27T06:16:04.211Z,5.77
2022-11-27T06:18:31.328Z,6.27
2022-11-27T06:20:58.435Z,5.47
2022-11-27T06:23:26.931Z,6.03
2022-11-27T06:25:54.053Z,6.40
2022-11-27T06:28:21.125Z,6.70
2022-11-27T06:30:48.224Z,6.40
2022-11-27T06:33:15.281Z,5.90
2022-11-27T06:35:42.364Z,6.93
2022-11-27T06:38:09.444Z,5.97
2022-11-27T06:40:37.860Z,7.30
2022-11-27T06:43:04.966Z,6.10
2022-11-27T06:45:32.129Z,6.23
2022-11-27T06:47:59.246Z,6.23
2022-11-27T06:50:26.350Z,5.47
2022-11-27T06:52:53.439Z,7.00
2022-11-27T06:55:20.539Z,6.47
2022-11-27T06:57:51.626Z,5.83
2022-11-27T07:00:19.380Z,5.90
2022-11-27T07:02:46.466Z,7.83
2022-11-27T07:05:13.547Z,7.20
2022-11-27T07:07:43.783Z,6.50
2022-11-27T07:10:11.348Z,5.70
2022-11-27T07:12:38.439Z,5.63
2022-11-27T07:15:08.148Z,5.20
2022-11-27T07:17:35.236Z,6.93
2022-11-27T07:20:02.340Z,6.13
2022-11-27T07:22:29.413Z,6.60
2022-11-27T07:24:56.473Z,5.90
2022-11-27T07:27:23.573Z,7.00
2022-11-27T07:29:50.696Z,5.20
2022-11-27T07:32:19.143Z,7.53
2022-11-27T07:34:46.252Z,6.60
2022-11-27T07:37:13.357Z,5.83
2022-11-27T07:40:01.291Z,6.33
2022-11-27T07:42:43.714Z,6.37
2022-11-27T07:45:11.560Z,5.60
2022-11-27T07:47:40.212Z,6.43
2022-11-27T07:50:09.108Z,6.57
2022-11-27T07:52:41.125Z,6.07
2022-11-27T07:55:09.440Z,5.30
2022-11-27T07:57:36.561Z,6.50
2022-11-27T08:00:04.555Z,5.90
2022-11-27T08:02:31.636Z,4.80
2022-11-27T08:05:00.148Z,5.40
2022-11-27T08:07:27.822Z,5.17
2022-11-27T08:09:54.980Z,5.67
2022-11-27T08:12:23.455Z,5.60
2022-11-27T08:14:50.618Z,4.60
2022-11-27T08:17:17.892Z,4.83
2022-11-27T08:19:44.960Z,6.20
2022-11-27T08:22:14.014Z,5.00
2022-11-27T08:24:41.362Z,5.50
2022-11-27T08:27:08.626Z,6.50
2022-11-27T08:29:35.729Z,6.43
2022-11-27T08:32:02.858Z,5.50
2022-11-27T08:34:30.014Z,6.20
2022-11-27T08:36:57.146Z,5.40
2022-11-27T08:39:25.651Z,5.30
2022-11-27T08:41:52.751Z,4.67
2022-11-27T08:44:20.139Z,4.70
2022-11-27T08:46:47.212Z,5.07
2022-11-27T08:49:14.315Z,4.90
2022-11-27T08:51:41.416Z,4.07
2022-11-27T08:54:08.502Z,4.53
2022-11-27T08:56:36.960Z,6.03
2022-11-27T08:59:04.076Z,5.67
2022-11-27T09:01:32.071Z,4.80
2022-11-27T09:03:59.382Z,4.77
2022-11-27T09:06:27.580Z,5.50
2022-11-27T09:08:56.799Z,4.70
2022-11-27T09:11:24.131Z,4.60
2022-11-27T09:13:52.580Z,5.20
2022-11-27T09:16:20.520Z,4.60
2022-11-27T09:18:48.445Z,4.13
2022-11-27T09:21:16.393Z,4.57
2022-11-27T09:23:43.466Z,6.50
2022-11-27T09:26:11.702Z,4.80
2022-11-27T09:28:39.532Z,4.97
2022-11-27T09:31:08.807Z,4.87
2022-11-27T09:33:37.263Z,4.73
2022-11-27T09:36:05.324Z,4.50
2022-11-27T09:38:32.537Z,5.17
2022-11-27T09:41:03.369Z,4.40
2022-11-27T09:43:32.262Z,5.00
2022-11-27T09:46:00.280Z,4.30
2022-11-27T09:48:33.891Z,6.20
2022-11-27T09:51:02.816Z,5.23
2022-11-27T09:53:33.512Z,4.30
2022-11-27T09:56:01.182Z,4.50
2022-11-27T09:58:35.904Z,5.53
2022-11-27T10:01:09.959Z,4.50
2022-11-27T10:03:40.721Z,5.57
2022-11-27T10:06:23.244Z,4.77
2022-11-27T10:08:58.542Z,5.63
2022-11-27T10:11:29.711Z,6.00
2022-11-27T10:14:03.129Z,5.47
2022-11-27T10:16:34.188Z,6.00
2022-11-27T10:19:06.283Z,5.47
2022-11-27T10:21:39.970Z,4.70
2022-11-27T10:24:13.467Z,5.60
2022-11-27T10:26:41.565Z,4.80
2022-11-27T10:29:15.648Z,5.73
2022-11-27T10:31:45.630Z,6.30
2022-11-27T10:34:21.319Z,5.97
2022-11-27T10:36:49.502Z,5.97
2022-11-27T10:39:17.655Z,5.50
2022-11-27T10:41:49.807Z,5.30
2022-11-27T10:44:29.413Z,5.40
2022-11-27T10:46:59.205Z,5.40
2022-11-27T10:49:27.650Z,6.10
2022-11-27T10:51:54.732Z,7.00
2022-11-27T10:54:23.737Z,6.20
2022-11-27T10:56:59.284Z,4.40
2022-11-27T10:59:33.052Z,5.67
2022-11-27T11:02:01.803Z,4.93
2022-11-27T11:04:39.230Z,5.07
2022-11-27T11:07:23.715Z,5.53
2022-11-27T11:09:50.885Z,4.67
2022-11-27T11:12:19.157Z,5.17
2022-11-27T11:14:51.015Z,5.87
2022-11-27T11:17:18.640Z,4.50
2022-11-27T11:19:47.156Z,4.77
2022-11-27T11:22:16.067Z,4.90
2022-11-27T11:24:46.639Z,5.07
2022-11-27T11:27:15.241Z,5.00
2022-11-27T11:29:47.069Z,6.33
2022-11-27T11:32:16.108Z,3.77
2022-11-27T11:34:44.325Z,5.30
2022-11-27T11:37:24.108Z,5.40
2022-11-27T11:39:56.001Z,6.03
2022-11-27T11:42:24.975Z,5.00
2022-11-27T11:44:52.805Z,4.50
2022-11-27T11:47:20.525Z,5.37
2022-11-27T11:49:47.628Z,4.73
2022-11-27T11:52:30.770Z,4.00
2022-11-27T11:55:00.701Z,4.90
2022-11-27T11:57:47.319Z,5.83
2022-11-27T12:00:16.307Z,5.47
2022-11-27T12:02:54.247Z,7.30
2022-11-27T12:05:26.902Z,4.50
2022-11-27T12:07:59.462Z,5.20
2022-11-27T12:10:28.554Z,5.17
2022-11-27T12:12:59.802Z,5.00
2022-11-27T12:15:30.351Z,4.70
2022-11-27T12:17:58.966Z,4.33
2022-11-27T12:20:28.108Z,3.77
2022-11-27T12:23:19.132Z,4.57
2022-11-27T12:25:48.077Z,5.03
2022-11-27T12:28:22.955Z,4.37
2022-11-27T12:30:52.362Z,4.70
2022-11-27T12:33:26.305Z,4.13
2022-11-27T12:35:59.117Z,4.40
2022-11-27T12:38:32.894Z,4.27
2022-11-27T12:41:09.731Z,4.70
2022-11-27T12:43:38.414Z,4.20
2022-11-27T12:46:10.601Z,4.73
2022-11-27T12:48:39.869Z,4.07
2022-11-27T12:51:08.618Z,4.33
2022-11-27T12:53:39.714Z,4.03
2022-11-27T12:56:09.869Z,3.77
2022-11-27T12:58:39.275Z,4.23
2022-11-27T13:01:08.426Z,3.83
2022-11-27T13:03:37.416Z,4.03
2022-11-27T13:06:06.941Z,4.20
2022-11-27T13:08:42.077Z,3.70
2022-11-27T13:11:11.641Z,3.53
2022-11-27T13:13:41.058Z,4.47
2022-11-27T13:16:11.790Z,4.60
2022-11-27T13:18:40.207Z,3.70
2022-11-27T13:21:09.772Z,4.30
2022-11-27T13:23:36.969Z,4.10
2022-11-27T13:26:05.103Z,3.77
2022-11-27T13:28:36.685Z,3.47
2022-11-27T13:31:04.412Z,3.97
2022-11-27T13:33:35.385Z,4.00
2022-11-27T13:36:03.485Z,2.83
2022-11-27T13:38:30.775Z,3.80
2022-11-27T13:40:59.729Z,3.60
2022-11-27T13:43:28.169Z,4.20
2022-11-27T13:46:03.438Z,3.30
2022-11-27T13:48:33.474Z,3.77
2022-11-27T13:51:00.765Z,4.43
2022-11-27T13:53:31.264Z,3.60
2022-11-27T13:55:58.364Z,3.60
2022-11-27T13:58:29.544Z,3.57
2022-11-27T14:00:56.810Z,3.70
2022-11-27T14:03:26.263Z,3.20
2022-11-27T14:05:53.518Z,3.93
2022-11-27T14:08:22.262Z,3.60
2022-11-27T14:10:50.488Z,3.13
2022-11-27T14:13:17.842Z,3.57
2022-11-27T14:15:45.109Z,3.67
2022-11-27T14:18:18.102Z,3.47
2022-11-27T14:20:48.503Z,3.57
2022-11-27T14:23:26.605Z,3.03
2022-11-27T14:26:01.641Z,2.90
2022-11-27T14:28:31.160Z,3.60
2022-11-27T14:30:59.032Z,2.53
2022-11-27T14:33:27.062Z,3.43
2022-11-27T14:35:56.272Z,3.03
2022-11-27T14:38:24.230Z,2.93
2022-11-27T14:40:52.176Z,2.83
2022-11-27T14:43:19.826Z,2.87
2022-11-27T14:45:47.752Z,3.33
2022-11-27T14:48:22.438Z,3.33
2022-11-27T14:50:50.482Z,3.13
2022-11-27T14:53:19.841Z,3.13
2022-11-27T14:55:48.108Z,2.47
2022-11-27T14:58:18.880Z,3.23
2022-11-27T15:00:51.364Z,3.27
2022-11-27T15:03:18.620Z,3.00
2022-11-27T15:05:51.584Z,2.63
2022-11-27T15:08:20.187Z,3.20
2022-11-27T15:10:47.317Z,3.00
2022-11-27T15:13:21.208Z,2.90
2022-11-27T15:15:54.107Z,3.40
2022-11-27T15:18:22.146Z,3.20
2022-11-27T15:20:49.381Z,3.43
2022-11-27T15:23:18.238Z,3.40
2022-11-27T15:25:47.808Z,3.50
2022-11-27T15:28:28.297Z,4.03
2022-11-27T15:30:56.002Z,3.07
2022-11-27T15:33:26.937Z,3.07
2022-11-27T15:35:54.415Z,3.30
2022-11-27T15:38:21.799Z,3.50
2022-11-27T15:40:58.581Z,4.30
2022-11-27T15:43:25.683Z,3.20
2022-11-27T15:45:52.836Z,3.70
2022-11-27T15:48:21.705Z,3.70
2022-11-27T15:50:51.868Z,2.67
2022-11-27T15:53:19.392Z,3.53
2022-11-27T15:55:46.473Z,3.80
2022-11-27T15:58:15.997Z,3.50
2022-11-27T16:00:43.088Z,4.47
2022-11-27T16:03:10.290Z,4.40
2022-11-27T16:05:37.378Z,4.40
2022-11-27T16:08:04.715Z,4.00
2022-11-27T16:10:31.895Z,4.23
2022-11-27T16:12:59.027Z,3.70
2022-11-27T16:15:32.598Z,4.50
2022-11-27T16:18:00.135Z,3.50
2022-11-27T16:20:27.617Z,4.33
2022-11-27T16:22:54.682Z,4.30
2022-11-27T16:25:21.805Z,5.27
2022-11-27T16:27:49.090Z,3.60
2022-11-27T16:30:16.370Z,4.10
2022-11-27T16:32:44.815Z,3.80
2022-11-27T16:35:13.016Z,4.30
2022-11-27T16:37:41.724Z,4.50
2022-11-27T16:40:09.158Z,5.10
2022-11-27T16:42:36.255Z,4.07
2022-11-27T16:45:03.389Z,3.07
2022-11-27T16:47:33.605Z,3.97
2022-11-27T16:50:02.802Z,3.60
2022-11-27T16:52:30.784Z,4.77
2022-11-27T16:54:58.016Z,3.53
2022-11-27T16:57:25.203Z,3.53
2022-11-27T16:59:52.843Z,3.70
2022-11-27T17:02:20.588Z,4.37
2022-11-27T17:04:47.785Z,4.00
2022-11-27T17:07:16.250Z,4.17
2022-11-27T17:09:43.398Z,4.70
2022-11-27T17:12:10.475Z,4.40
2022-11-27T17:14:37.876Z,4.07
2022-11-27T17:17:05.220Z,4.43
2022-11-27T17:19:32.306Z,3.80
2022-11-27T17:22:00.149Z,4.30
2022-11-27T17:24:29.063Z,4.10
2022-11-27T17:26:56.324Z,3.90
2022-11-27T17:29:33.573Z,3.50
2022-11-27T17:32:02.438Z,3.70
2022-11-27T17:34:29.564Z,3.13
2022-11-27T17:36:56.651Z,4.70
2022-11-27T17:39:24.349Z,4.03
2022-11-27T17:41:52.793Z,4.57
2022-11-27T17:44:19.945Z,4.00
2022-11-27T17:46:47.118Z,3.60
2022-11-27T17:49:14.450Z,3.97
2022-11-27T17:51:41.725Z,4.53
2022-11-27T17:54:11.357Z,3.90
2022-11-27T17:56:39.097Z,4.00
2022-11-27T17:59:07.604Z,3.73
2022-11-27T18:01:34.923Z,3.90
2022-11-27T18:04:03.516Z,4.93
2022-11-27T18:06:31.391Z,3.53
2022-11-27T18:08:59.143Z,4.53
2022-11-27T18:11:27.402Z,3.70
2022-11-27T18:13:54.623Z,3.63
2022-11-27T18:16:25.844Z,3.90
2022-11-27T18:18:53.031Z,4.47
2022-11-27T18:21:20.903Z,3.73
2022-11-27T18:29:23.124Z,4.70
2022-11-27T18:31:51.583Z,4.43
2022-11-27T18:34:18.834Z,4.43
2022-11-27T18:36:46.106Z,3.60
2022-11-27T18:39:13.430Z,4.00
2022-11-27T18:41:40.838Z,3.90
2022-11-27T18:44:08.890Z,3.80
2022-11-27T18:46:36.296Z,3.20
2022-11-27T18:49:04.794Z,4.63
2022-11-27T18:51:32.349Z,4.40
2022-11-27T18:53:59.439Z,3.70
2022-11-27T18:56:27.161Z,4.20
2022-11-27T18:58:54.383Z,4.50
2022-11-27T19:01:23.109Z,4.33
2022-11-27T19:03:50.690Z,4.80
2022-11-27T19:06:21.195Z,3.87
2022-11-27T19:08:48.930Z,4.10
2022-11-27T19:11:17.115Z,4.53
2022-11-27T19:13:44.245Z,4.03
2022-11-27T19:16:17.352Z,3.73
2022-11-27T19:18:44.533Z,4.83
2022-11-27T19:21:15.720Z,4.13
2022-11-27T19:23:45.013Z,4.57
2022-11-27T19:26:12.844Z,4.30
2022-11-27T19:28:40.195Z,3.87
2022-11-27T19:31:08.317Z,4.20
2022-11-27T19:33:35.492Z,3.43
2022-11-27T19:36:03.434Z,4.80
2022-11-27T19:38:30.687Z,4.00
2022-11-27T19:40:59.201Z,4.70
2022-11-27T19:43:26.297Z,4.33
2022-11-27T19:45:53.452Z,4.80
2022-11-27T19:48:23.364Z,3.73
2022-11-27T19:50:51.542Z,4.70
2022-11-27T19:53:19.131Z,4.37
2022-11-27T19:55:52.927Z,3.77
2022-11-27T19:58:21.359Z,4.87
2022-11-27T20:00:49.778Z,3.60
2022-11-27T20:03:16.913Z,4.20
2022-11-27T20:05:43.991Z,4.53
2022-11-27T20:08:11.101Z,4.70
2022-11-27T20:10:38.221Z,3.87
2022-11-27T20:13:05.550Z,4.27
2022-11-27T20:15:34.247Z,4.37
2022-11-27T20:18:01.328Z,5.30
2022-11-27T20:20:33.873Z,4.80
2022-11-27T20:23:01.526Z,4.40
2022-11-27T20:25:28.950Z,4.57
2022-11-27T20:27:56.019Z,4.67
2022-11-27T20:30:24.315Z,4.90
2022-11-27T20:32:52.788Z,4.77
2022-11-27T20:35:20.239Z,4.73
2022-11-27T20:37:47.322Z,4.20
2022-11-27T20:40:14.715Z,4.87
2022-11-27T20:42:41.843Z,4.80
2022-11-27T20:45:09.309Z,4.67
2022-11-27T20:47:36.606Z,4.10
2022-11-27T20:50:05.481Z,4.80
2022-11-27T20:52:33.909Z,3.87
2022-11-27T20:55:00.983Z,5.33
2022-11-27T20:57:28.388Z,5.37
2022-11-27T20:59:55.643Z,5.40
2022-11-27T21:02:22.993Z,5.60
2022-11-27T21:04:50.126Z,5.80
2022-11-27T21:07:18.567Z,5.27
2022-11-27T21:09:45.756Z,5.20
2022-11-27T21:12:13.407Z,4.43
2022-11-27T21:14:40.516Z,5.60
2022-11-27T21:17:08.960Z,5.73
2022-11-27T21:19:36.061Z,5.40
2022-11-27T21:22:03.367Z,5.30
2022-11-27T21:24:31.853Z,6.20
2022-11-27T21:26:59.028Z,6.30
2022-11-27T21:29:26.415Z,5.27
2022-11-27T21:31:54.288Z,5.40
2022-11-27T21:34:21.493Z,4.27
2022-11-27T21:36:49.363Z,5.77
2022-11-27T21:39:16.893Z,5.17
2022-11-27T21:41:45.329Z,5.37
2022-11-27T21:44:13.407Z,5.57
2022-11-27T21:46:40.510Z,6.03
2022-11-27T21:49:07.616Z,5.83
2022-11-27T21:51:34.772Z,5.90
2022-11-27T21:54:06.359Z,6.27
2022-11-27T21:56:33.584Z,4.40
2022-11-27T21:59:02.047Z,6.47
2022-11-27T22:01:29.230Z,5.50
2022-11-27T22:03:57.233Z,5.60
2022-11-27T22:06:25.495Z,6.87
2022-11-27T22:08:54.324Z,5.80
2022-11-27T22:11:23.095Z,6.00
2022-11-27T22:13:50.495Z,7.00
2022-11-27T22:16:20.385Z,6.17
2022-11-27T22:18:48.218Z,6.70
2022-11-27T22:21:15.863Z,5.80
2022-11-27T22:23:43.762Z,6.63
2022-11-27T22:26:12.225Z,7.40
2022-11-27T22:28:39.612Z,6.70
2022-11-27T22:31:09.960Z,7.20
2022-11-27T22:33:39.861Z,7.53
2022-11-27T22:36:14.140Z,7.00
2022-11-27T22:38:41.265Z,7.20
2022-11-27T22:41:08.521Z,6.40
2022-11-27T22:43:36.365Z,4.83
2022-11-27T22:46:05.029Z,6.70
2022-11-27T22:48:32.443Z,8.40
2022-11-27T22:51:00.883Z,8.10
2022-11-27T22:53:28.215Z,7.90
2022-11-27T22:55:55.342Z,9.10
2022-11-27T22:58:22.880Z,7.90
2022-11-27T23:00:54.515Z,6.87
2022-11-27T23:03:21.631Z,7.60
2022-11-27T23:05:48.781Z,7.53
2022-11-27T23:08:17.243Z,6.57
2022-11-27T23:10:44.393Z,9.67
2022-11-27T23:13:11.504Z,7.40
2022-11-27T23:15:38.572Z,8.00
2022-11-27T23:18:05.719Z,7.23
2022-11-27T23:20:33.233Z,7.10
2022-11-27T23:23:00.480Z,7.80
2022-11-27T23:25:30.334Z,6.37
2022-11-27T23:27:57.474Z,8.63
2022-11-27T23:30:24.576Z,8.20
2022-11-27T23:32:51.669Z,7.83
2022-11-27T23:35:18.826Z,7.90
2022-11-27T23:37:45.936Z,7.30
2022-11-27T23:40:13.137Z,7.20
2022-11-27T23:42:41.758Z,6.50
2022-11-27T23:45:09.538Z,7.13
2022-11-27T23:47:36.653Z,7.03
2022-11-27T23:50:03.808Z,5.77
2022-11-27T23:52:30.945Z,7.27
2022-11-27T23:54:58.090Z,6.57
2022-11-27T23:57:25.180Z,7.40
2022-11-27T23:59:53.624Z,8.43
